createdAt,value
2023-01-13T00:00:15.415Z,6.31
2023-01-13T00:02:42.187Z,6.24
2023-01-13T00:05:10.001Z,6.25
2023-01-13T00:07:38.412Z,6.20
2023-01-13T00:10:05.825Z,6.14
2023-01-13T00:12:32.530Z,5.62
2023-01-13T00:14:59.229Z,5.74
2023-01-13T00:17:25.841Z,5.98
2023-01-13T00:19:52.511Z,5.87
2023-01-13T00:22:19.422Z,5.88
2023-01-13T00:24:46.111Z,5.69
2023-01-13T00:27:12.843Z,5.62
2023-01-13T00:29:39.513Z,5.57
2023-01-13T00:32:06.221Z,5.90
2023-01-13T00:34:33.123Z,5.58
2023-01-13T00:36:59.867Z,5.54
2023-01-13T00:39:26.533Z,5.59
2023-01-13T00:42:11.893Z,5.30
2023-01-13T00:44:38.571Z,5.55
2023-01-13T00:47:05.304Z,5.54
2023-01-13T00:49:31.965Z,5.33
2023-01-13T00:51:58.608Z,5.23
2023-01-13T00:54:25.280Z,5.07
2023-01-13T00:56:51.936Z,5.13
2023-01-13T00:59:18.993Z,5.37
2023-01-13T01:01:45.917Z,5.68
2023-01-13T01:04:12.946Z,5.50
2023-01-13T01:06:39.619Z,5.52
2023-01-13T01:09:06.397Z,5.69
2023-01-13T01:11:34.593Z,5.75
2023-01-13T01:14:02.927Z,5.87
2023-01-13T01:16:31.228Z,5.79
2023-01-13T01:18:58.766Z,5.71
2023-01-13T01:21:27.377Z,5.91
2023-01-13T01:23:55.466Z,5.92
2023-01-13T01:26:24.836Z,5.97
2023-01-13T01:28:52.219Z,5.97
2023-01-13T01:31:24.287Z,5.95
2023-01-13T01:33:51.408Z,5.89
2023-01-13T01:36:20.046Z,5.96
2023-01-13T01:38:47.646Z,5.99
2023-01-13T01:41:23.752Z,5.86
2023-01-13T01:44:04.070Z,6.07
2023-01-13T01:46:32.719Z,5.99
2023-01-13T01:49:20.706Z,6.27
2023-01-13T01:51:53.759Z,6.26
2023-01-13T01:54:26.368Z,6.18
2023-01-13T01:56:53.502Z,5.83
2023-01-13T01:59:20.460Z,5.88
2023-01-13T02:01:48.618Z,5.71
2023-01-13T02:04:28.187Z,5.96
2023-01-13T02:06:56.875Z,5.73
2023-01-13T02:09:26.335Z,5.67
2023-01-13T02:12:11.421Z,6.11
2023-01-13T02:14:39.630Z,5.67
2023-01-13T02:17:21.223Z,6.25
2023-01-13T02:20:12.926Z,6.31
2023-01-13T02:23:43.473Z,6.39
2023-01-13T02:26:30.352Z,6.57
2023-01-13T02:29:56.701Z,6.56
2023-01-13T02:33:00.351Z,6.45
2023-01-13T02:35:48.158Z,6.27
2023-01-13T02:38:17.159Z,6.46
2023-01-13T02:40:49.917Z,6.36
2023-01-13T02:43:55.304Z,6.40
2023-01-13T02:46:31.437Z,6.39
2023-01-13T02:49:02.963Z,6.45
2023-01-13T02:51:32.028Z,6.38
2023-01-13T02:54:13.875Z,6.61
2023-01-13T02:56:44.917Z,6.27
2023-01-13T02:59:13.317Z,6.27
2023-01-13T03:01:40.746Z,6.43
2023-01-13T03:04:15.777Z,6.20
2023-01-13T03:07:06.460Z,6.24
2023-01-13T03:09:50.386Z,6.52
2023-01-13T03:12:43.358Z,6.45
2023-01-13T03:15:22.555Z,6.40
2023-01-13T03:18:01.953Z,6.16
2023-01-13T03:20:35.506Z,6.04
2023-01-13T03:23:15.933Z,6.44
2023-01-13T03:26:12.819Z,6.42
2023-01-13T03:28:54.453Z,6.20
2023-01-13T03:31:29.233Z,6.16
2023-01-13T03:34:02.537Z,6.03
2023-01-13T03:36:32.923Z,6.25
2023-01-13T03:39:08.130Z,6.29
2023-01-13T03:41:55.052Z,6.26
2023-01-13T03:44:33.947Z,6.21
2023-01-13T03:47:35.737Z,6.41
2023-01-13T03:50:12.153Z,6.51
2023-01-13T03:52:45.777Z,6.16
2023-01-13T03:55:14.119Z,5.64
2023-01-13T03:57:55.247Z,6.12
2023-01-13T04:00:31.464Z,6.06
2023-01-13T04:03:05.505Z,6.15
2023-01-13T04:05:36.290Z,6.01
2023-01-13T04:08:21.323Z,6.21
2023-01-13T04:10:56.759Z,6.31
2023-01-13T04:13:28.980Z,6.35
2023-01-13T04:15:56.056Z,6.28
2023-01-13T04:18:26.112Z,6.08
2023-01-13T04:20:56.235Z,6.27
2023-01-13T04:23:23.384Z,6.23
2023-01-13T04:25:50.651Z,6.31
2023-01-13T04:28:18.753Z,6.43
2023-01-13T04:30:45.674Z,6.40
2023-01-13T04:33:13.674Z,6.18
2023-01-13T04:35:40.582Z,6.07
2023-01-13T04:38:13.135Z,6.16
2023-01-13T04:40:40.910Z,6.34
2023-01-13T04:43:08.023Z,6.34
2023-01-13T04:45:34.731Z,6.07
2023-01-13T04:48:01.951Z,6.50
2023-01-13T04:50:28.922Z,6.23
2023-01-13T04:52:56.101Z,6.23
2023-01-13T04:55:24.216Z,6.04
2023-01-13T04:57:51.093Z,6.05
2023-01-13T05:00:19.743Z,6.22
2023-01-13T05:02:46.421Z,6.15
2023-01-13T05:05:13.308Z,5.94
2023-01-13T05:07:40.036Z,6.34
2023-01-13T05:10:06.969Z,6.12
2023-01-13T05:12:53.190Z,5.91
2023-01-13T05:15:38.467Z,5.99
2023-01-13T05:18:05.543Z,6.03
2023-01-13T05:20:32.202Z,5.99
2023-01-13T05:23:17.517Z,5.95
2023-01-13T05:25:48.314Z,5.99
2023-01-13T05:28:15.010Z,5.89
2023-01-13T05:30:44.567Z,6.09
2023-01-13T05:33:13.209Z,6.22
2023-01-13T05:35:42.332Z,6.15
2023-01-13T05:38:09.694Z,6.11
2023-01-13T05:40:59.388Z,6.22
2023-01-13T05:43:27.035Z,6.29
2023-01-13T05:46:02.932Z,6.07
2023-01-13T05:48:37.438Z,6.01
2023-01-13T05:51:06.648Z,6.15
2023-01-13T05:53:33.811Z,6.07
2023-01-13T05:56:00.813Z,6.33
2023-01-13T05:58:28.192Z,6.51
2023-01-13T06:01:02.929Z,6.69
2023-01-13T06:03:30.243Z,6.49
2023-01-13T06:05:59.473Z,6.32
2023-01-13T06:08:26.780Z,6.65
2023-01-13T06:10:53.583Z,6.44
2023-01-13T06:13:20.359Z,6.21
2023-01-13T06:15:47.098Z,6.23
2023-01-13T06:18:13.882Z,6.14
2023-01-13T06:20:40.605Z,6.34
2023-01-13T06:23:10.830Z,6.47
2023-01-13T06:25:55.974Z,6.46
2023-01-13T06:28:22.727Z,6.34
2023-01-13T06:30:53.263Z,6.41
2023-01-13T06:33:23.925Z,6.62
2023-01-13T06:35:56.098Z,6.88
2023-01-13T06:38:26.303Z,6.78
2023-01-13T06:40:53.338Z,6.48
2023-01-13T06:43:20.159Z,6.32
2023-01-13T06:45:53.082Z,6.38
2023-01-13T06:48:23.581Z,6.62
2023-01-13T06:50:50.402Z,6.47
2023-01-13T06:53:17.390Z,6.47
2023-01-13T06:55:44.067Z,6.29
2023-01-13T06:58:10.729Z,6.36
2023-01-13T07:00:37.796Z,6.44
2023-01-13T07:03:15.072Z,6.49
2023-01-13T07:05:43.525Z,6.27
2023-01-13T07:08:10.871Z,6.58
2023-01-13T07:10:38.039Z,6.37
2023-01-13T07:13:24.096Z,6.38
2023-01-13T07:16:02.678Z,6.57
2023-01-13T07:18:31.895Z,6.58
2023-01-13T07:21:01.595Z,6.52
2023-01-13T07:23:30.142Z,6.29
2023-01-13T07:25:57.883Z,6.48
2023-01-13T07:28:25.572Z,6.43
2023-01-13T07:30:52.942Z,6.57
2023-01-13T07:33:20.473Z,6.41
2023-01-13T07:35:48.194Z,6.41
2023-01-13T07:38:15.592Z,5.84
2023-01-13T07:40:42.307Z,5.89
2023-01-13T07:43:30.894Z,5.96
2023-01-13T07:46:06.759Z,6.15
2023-01-13T07:48:35.298Z,6.01
2023-01-13T07:51:04.080Z,6.33
2023-01-13T07:53:31.084Z,6.40
2023-01-13T07:55:59.090Z,6.54
2023-01-13T07:58:26.289Z,6.46
2023-01-13T08:00:53.780Z,6.00
2023-01-13T08:03:20.676Z,6.07
2023-01-13T08:05:47.667Z,6.03
2023-01-13T08:08:15.112Z,6.10
2023-01-13T08:10:41.901Z,6.25
2023-01-13T08:13:22.331Z,6.12
2023-01-13T08:15:52.155Z,6.08
2023-01-13T08:18:22.565Z,6.36
2023-01-13T08:20:52.508Z,6.23
2023-01-13T08:23:20.820Z,5.82
2023-01-13T08:25:48.030Z,5.92
2023-01-13T08:28:16.476Z,5.94
2023-01-13T08:30:43.263Z,5.94
2023-01-13T08:33:11.827Z,6.18
2023-01-13T08:35:42.183Z,6.30
2023-01-13T08:38:09.230Z,5.94
2023-01-13T08:40:36.765Z,6.18
2023-01-13T08:43:03.568Z,5.79
2023-01-13T08:45:30.401Z,5.92
2023-01-13T08:47:57.192Z,5.98
2023-01-13T08:50:24.074Z,5.94
2023-01-13T08:52:50.797Z,5.96
2023-01-13T08:55:17.509Z,5.93
2023-01-13T08:57:44.351Z,6.14
2023-01-13T09:00:12.875Z,5.92
2023-01-13T09:02:39.611Z,6.17
2023-01-13T09:05:07.607Z,6.25
2023-01-13T09:07:35.830Z,6.07
2023-01-13T09:10:03.836Z,6.17
2023-01-13T09:12:48.996Z,6.15
2023-01-13T09:15:18.530Z,6.16
2023-01-13T09:17:45.621Z,6.12
2023-01-13T09:20:12.879Z,5.95
2023-01-13T09:22:40.769Z,6.11
2023-01-13T09:25:08.000Z,6.01
2023-01-13T09:27:34.751Z,6.16
2023-01-13T09:30:01.835Z,6.01
2023-01-13T09:32:28.521Z,6.03
2023-01-13T09:35:01.623Z,5.92
2023-01-13T09:37:28.251Z,6.21
2023-01-13T09:39:55.072Z,5.88
2023-01-13T09:42:40.291Z,6.43
2023-01-13T09:45:22.164Z,6.07
2023-01-13T09:47:52.448Z,6.00
2023-01-13T09:50:45.505Z,6.36
2023-01-13T09:53:21.512Z,6.11
2023-01-13T09:55:48.608Z,6.08
2023-01-13T09:58:18.156Z,6.15
2023-01-13T10:01:06.168Z,5.99
2023-01-13T10:03:35.155Z,6.34
2023-01-13T10:06:13.989Z,6.22
2023-01-13T10:08:43.046Z,6.06
2023-01-13T10:11:42.671Z,6.03
2023-01-13T10:14:23.356Z,5.96
2023-01-13T10:17:12.017Z,6.05
2023-01-13T10:19:47.393Z,5.87
2023-01-13T10:22:14.849Z,6.10
2023-01-13T10:25:20.472Z,6.32
2023-01-13T10:27:53.639Z,5.99
2023-01-13T10:30:27.668Z,6.31
2023-01-13T10:32:57.450Z,6.07
2023-01-13T10:35:49.868Z,6.39
2023-01-13T10:38:20.088Z,6.30
2023-01-13T10:41:01.907Z,6.62
2023-01-13T10:43:29.942Z,6.33
2023-01-13T10:46:11.023Z,6.08
2023-01-13T10:48:53.264Z,6.57
2023-01-13T10:51:27.688Z,6.34
2023-01-13T10:54:25.038Z,6.65
2023-01-13T10:57:18.850Z,6.73
2023-01-13T10:59:45.647Z,6.61
2023-01-13T11:02:32.972Z,6.75
2023-01-13T11:05:17.911Z,6.55
2023-01-13T11:07:52.268Z,6.57
2023-01-13T11:10:31.469Z,6.70
2023-01-13T11:13:10.276Z,6.81
2023-01-13T11:16:16.746Z,6.80
2023-01-13T11:19:12.245Z,6.98
2023-01-13T11:21:54.731Z,6.56
2023-01-13T11:24:43.253Z,7.09
2023-01-13T11:27:17.877Z,6.69
2023-01-13T11:30:03.300Z,6.98
2023-01-13T11:32:35.774Z,6.56
2023-01-13T11:35:10.216Z,6.87
2023-01-13T11:37:42.610Z,6.88
2023-01-13T11:40:30.599Z,6.98
2023-01-13T11:43:00.156Z,7.13
2023-01-13T11:45:40.265Z,7.20
2023-01-13T11:48:15.636Z,7.12
2023-01-13T11:50:55.251Z,7.25
2023-01-13T11:53:53.553Z,7.01
2023-01-13T11:56:41.634Z,7.12
2023-01-13T11:59:27.254Z,7.21
2023-01-13T12:02:22.020Z,7.28
2023-01-13T12:04:54.702Z,7.30
2023-01-13T12:07:40.217Z,6.91
2023-01-13T12:10:13.539Z,7.43
2023-01-13T12:12:43.431Z,7.37
2023-01-13T12:15:22.629Z,7.49
2023-01-13T12:17:52.332Z,7.23
2023-01-13T12:20:26.451Z,7.35
2023-01-13T12:22:58.480Z,7.03
2023-01-13T12:25:37.626Z,7.30
2023-01-13T12:28:14.308Z,7.14
2023-01-13T12:30:45.962Z,7.12
2023-01-13T12:33:54.647Z,7.57
2023-01-13T12:36:46.248Z,7.39
2023-01-13T12:39:46.895Z,7.32
2023-01-13T12:42:52.455Z,7.52
2023-01-13T12:45:19.580Z,7.43
2023-01-13T12:47:46.764Z,7.67
2023-01-13T12:50:23.012Z,7.67
2023-01-13T12:52:54.103Z,7.60
2023-01-13T12:55:41.259Z,7.67
2023-01-13T12:58:11.082Z,7.76
2023-01-13T13:00:57.283Z,7.55
2023-01-13T13:03:30.545Z,7.31
2023-01-13T13:06:00.440Z,7.73
2023-01-13T13:08:45.476Z,7.80
2023-01-13T13:11:33.432Z,7.77
2023-01-13T13:14:07.447Z,7.93
2023-01-13T13:17:03.525Z,8.03
2023-01-13T13:19:33.256Z,8.10
2023-01-13T13:22:12.295Z,7.86
2023-01-13T13:24:43.241Z,7.85
2023-01-13T13:27:20.164Z,7.84
2023-01-13T13:29:53.513Z,7.89
2023-01-13T13:32:28.939Z,7.93
2023-01-13T13:34:58.477Z,7.90
2023-01-13T13:38:13.004Z,7.79
2023-01-13T13:40:59.426Z,7.83
2023-01-13T13:43:45.775Z,7.78
2023-01-13T13:46:47.864Z,7.65
2023-01-13T13:49:15.844Z,7.47
2023-01-13T13:51:46.460Z,7.61
2023-01-13T13:54:15.298Z,7.60
2023-01-13T13:56:43.916Z,7.44
2023-01-13T13:59:12.173Z,7.41
2023-01-13T14:01:40.760Z,7.44
2023-01-13T14:04:16.829Z,7.43
2023-01-13T14:06:54.451Z,7.23
2023-01-13T14:09:21.411Z,7.39
2023-01-13T14:12:14.344Z,7.24
2023-01-13T14:14:44.626Z,7.08
2023-01-13T14:17:28.122Z,7.17
2023-01-13T14:20:02.823Z,7.34
2023-01-13T14:22:29.492Z,7.32
2023-01-13T14:24:57.894Z,7.08
2023-01-13T14:27:27.560Z,7.32
2023-01-13T14:29:55.500Z,7.19
2023-01-13T14:32:23.491Z,7.27
2023-01-13T14:34:51.552Z,7.44
2023-01-13T14:37:41.864Z,7.42
2023-01-13T14:40:27.406Z,7.48
2023-01-13T14:43:00.869Z,7.53
2023-01-13T14:45:27.809Z,7.40
2023-01-13T14:47:54.616Z,7.42
2023-01-13T14:50:28.076Z,7.51
2023-01-13T14:52:57.059Z,7.35
2023-01-13T14:55:23.806Z,7.43
2023-01-13T14:57:50.780Z,7.35
2023-01-13T15:00:22.537Z,7.32
2023-01-13T15:02:58.371Z,7.37
2023-01-13T15:05:28.212Z,7.32
2023-01-13T15:07:54.740Z,7.27
2023-01-13T15:10:26.807Z,7.27
2023-01-13T15:12:55.168Z,7.18
2023-01-13T15:15:24.907Z,7.10
2023-01-13T15:17:51.881Z,7.04
2023-01-13T15:20:20.312Z,7.05
2023-01-13T15:22:47.582Z,7.07
2023-01-13T15:25:15.105Z,7.22
2023-01-13T15:27:43.386Z,7.16
2023-01-13T15:30:14.764Z,7.14
2023-01-13T15:32:41.555Z,7.10
2023-01-13T15:35:09.696Z,6.94
2023-01-13T15:37:36.376Z,6.98
2023-01-13T15:40:03.355Z,6.97
2023-01-13T15:42:48.538Z,6.80
2023-01-13T15:45:33.803Z,6.79
2023-01-13T15:48:00.495Z,6.86
2023-01-13T15:50:29.008Z,6.91
2023-01-13T15:52:55.576Z,6.80
2023-01-13T15:55:22.171Z,6.67
2023-01-13T15:57:50.009Z,6.57
2023-01-13T16:00:17.980Z,6.57
2023-01-13T16:02:44.678Z,6.56
2023-01-13T16:05:11.374Z,6.34
2023-01-13T16:07:38.458Z,6.34
2023-01-13T16:10:06.202Z,6.33
2023-01-13T16:12:32.912Z,6.28
2023-01-13T16:14:59.637Z,6.16
2023-01-13T16:17:29.751Z,6.18
2023-01-13T16:19:56.547Z,6.20
2023-01-13T16:22:23.248Z,6.25
2023-01-13T16:24:50.079Z,6.19
2023-01-13T16:27:18.314Z,6.12
2023-01-13T16:29:45.624Z,5.90
2023-01-13T16:32:12.618Z,5.97
2023-01-13T16:34:39.270Z,5.90
2023-01-13T16:37:18.796Z,5.74
2023-01-13T16:39:45.387Z,5.69
2023-01-13T16:42:11.958Z,5.68
2023-01-13T16:44:38.546Z,5.58
2023-01-13T16:47:05.126Z,5.57
2023-01-13T16:49:32.096Z,5.38
2023-01-13T16:51:58.721Z,5.31
2023-01-13T16:54:25.235Z,5.26
2023-01-13T16:56:51.797Z,5.17
2023-01-13T16:59:18.440Z,5.19
2023-01-13T17:01:45.174Z,5.11
2023-01-13T17:04:17.477Z,5.08
2023-01-13T17:06:47.127Z,5.03
2023-01-13T17:09:17.777Z,4.97
2023-01-13T17:11:44.352Z,4.93
2023-01-13T17:14:18.587Z,4.87
2023-01-13T17:16:46.245Z,4.71
2023-01-13T17:19:13.431Z,4.74
2023-01-13T17:21:40.047Z,4.70
2023-01-13T17:24:08.063Z,4.68
2023-01-13T17:26:52.877Z,4.61
2023-01-13T17:29:22.001Z,4.54
2023-01-13T17:31:52.528Z,4.55
2023-01-13T17:34:20.415Z,4.56
2023-01-13T17:36:47.349Z,4.67
2023-01-13T17:39:19.533Z,4.73
2023-01-13T17:41:49.842Z,4.72
2023-01-13T17:44:17.414Z,4.74
2023-01-13T17:46:44.159Z,4.70
2023-01-13T17:49:14.893Z,4.66
2023-01-13T17:51:42.175Z,4.60
2023-01-13T17:54:12.563Z,4.61
2023-01-13T17:56:39.976Z,4.62
2023-01-13T17:59:08.925Z,4.57
2023-01-13T18:01:36.799Z,4.56
2023-01-13T18:04:07.055Z,4.55
2023-01-13T18:06:34.075Z,4.55
2023-01-13T18:09:04.008Z,4.53
2023-01-13T18:11:31.222Z,4.51
2023-01-13T18:14:01.206Z,4.46
2023-01-13T18:16:30.378Z,4.44
2023-01-13T18:19:17.830Z,4.41
2023-01-13T18:22:02.940Z,4.38
2023-01-13T18:24:48.161Z,4.31
2023-01-13T18:27:23.091Z,4.21
2023-01-13T18:29:57.194Z,4.14
2023-01-13T18:32:24.951Z,4.19
2023-01-13T18:35:01.667Z,4.12
2023-01-13T18:37:31.956Z,4.22
2023-01-13T18:39:58.807Z,4.28
2023-01-13T18:42:43.965Z,4.19
2023-01-13T18:45:10.820Z,4.17
2023-01-13T18:47:39.236Z,4.14
2023-01-13T18:50:06.060Z,4.06
2023-01-13T18:52:32.681Z,3.97
2023-01-13T18:54:59.264Z,3.88
2023-01-13T18:57:25.865Z,3.87
2023-01-13T18:59:52.492Z,3.82
2023-01-13T19:02:20.396Z,3.90
2023-01-13T19:04:47.671Z,3.94
2023-01-13T19:07:22.190Z,3.98
2023-01-13T19:09:52.139Z,3.99
2023-01-13T19:12:26.110Z,3.91
2023-01-13T19:14:53.724Z,3.96
2023-01-13T19:17:20.831Z,3.98
2023-01-13T19:19:49.055Z,3.95
2023-01-13T19:22:17.302Z,4.00
2023-01-13T19:24:43.877Z,4.02
2023-01-13T19:27:11.986Z,4.01
2023-01-13T19:29:38.534Z,4.04
2023-01-13T19:32:16.000Z,3.90
2023-01-13T19:34:43.005Z,3.96
2023-01-13T19:37:10.083Z,3.96
2023-01-13T19:39:36.715Z,4.06
2023-01-13T19:42:21.934Z,3.99
2023-01-13T19:45:07.373Z,3.96
2023-01-13T19:47:33.993Z,3.90
2023-01-13T19:50:03.714Z,3.91
2023-01-13T19:52:30.907Z,3.87
2023-01-13T19:54:57.769Z,3.84
2023-01-13T19:57:25.792Z,3.80
2023-01-13T19:59:52.651Z,3.79
2023-01-13T20:02:28.236Z,3.85
2023-01-13T20:04:56.445Z,3.79
2023-01-13T20:07:24.623Z,3.84
2023-01-13T20:09:52.221Z,3.90
2023-01-13T20:12:20.110Z,3.99
2023-01-13T20:14:47.824Z,4.00
2023-01-13T20:17:15.800Z,3.97
2023-01-13T20:19:42.799Z,3.99
2023-01-13T20:22:09.615Z,3.96
2023-01-13T20:24:36.251Z,3.97
2023-01-13T20:27:04.047Z,4.02
2023-01-13T20:29:30.663Z,3.99
2023-01-13T20:31:57.474Z,3.89
2023-01-13T20:34:24.646Z,3.85
2023-01-13T20:36:54.288Z,3.82
2023-01-13T20:39:22.004Z,3.85
2023-01-13T20:42:07.317Z,3.87
2023-01-13T20:44:34.079Z,3.89
2023-01-13T20:47:04.221Z,3.93
2023-01-13T20:49:31.054Z,3.84
2023-01-13T20:51:57.808Z,3.86
2023-01-13T20:54:24.531Z,3.87
2023-01-13T20:56:51.925Z,3.90
2023-01-13T20:59:18.587Z,3.91
2023-01-13T21:01:45.230Z,3.91
2023-01-13T21:04:12.020Z,3.87
2023-01-13T21:06:45.136Z,3.84
2023-01-13T21:09:13.635Z,3.79
2023-01-13T21:11:58.648Z,3.72
2023-01-13T21:14:44.701Z,3.66
2023-01-13T21:17:32.888Z,3.63
2023-01-13T21:19:59.789Z,3.56
2023-01-13T21:22:26.816Z,3.50
2023-01-13T21:24:54.001Z,3.45
2023-01-13T21:27:21.085Z,3.47
2023-01-13T21:29:48.421Z,3.38
2023-01-13T21:32:15.021Z,3.38
2023-01-13T21:34:41.624Z,3.36
2023-01-13T21:37:08.624Z,3.34
2023-01-13T21:39:35.183Z,3.34
2023-01-13T21:42:20.415Z,3.38
2023-01-13T21:45:05.745Z,3.36
2023-01-13T21:47:51.362Z,3.30
2023-01-13T21:50:22.234Z,3.26
2023-01-13T21:52:52.637Z,3.20
2023-01-13T21:55:20.714Z,2.97
2023-01-13T21:57:48.089Z,2.88
2023-01-13T22:00:15.284Z,2.91
2023-01-13T22:02:42.277Z,3.03
2023-01-13T22:05:10.360Z,3.08
2023-01-13T22:07:37.715Z,3.11
2023-01-13T22:10:08.774Z,3.13
2023-01-13T22:12:36.288Z,3.17
2023-01-13T22:15:03.941Z,3.19
2023-01-13T22:17:32.347Z,3.14
2023-01-13T22:19:59.332Z,3.12
2023-01-13T22:22:26.499Z,3.07
2023-01-13T22:24:53.572Z,2.74
2023-01-13T22:27:21.854Z,2.74
2023-01-13T22:29:48.956Z,2.71
2023-01-13T22:32:15.719Z,2.52
2023-01-13T22:34:42.387Z,2.63
2023-01-13T22:37:09.056Z,2.79
2023-01-13T22:39:35.684Z,2.83
2023-01-13T22:42:02.449Z,2.83
2023-01-13T22:44:28.999Z,2.85
2023-01-13T22:46:55.756Z,2.84
2023-01-13T22:49:23.132Z,2.82
2023-01-13T22:51:49.712Z,2.81
2023-01-13T22:54:17.200Z,2.87
2023-01-13T22:56:43.847Z,2.92
2023-01-13T22:59:11.811Z,2.90
2023-01-13T23:01:38.755Z,2.62
2023-01-13T23:04:05.799Z,2.77
2023-01-13T23:06:33.369Z,2.80
2023-01-13T23:09:00.702Z,2.85
2023-01-13T23:11:30.650Z,2.93
2023-01-13T23:13:59.677Z,2.97
2023-01-13T23:16:26.936Z,3.02
2023-01-13T23:18:53.838Z,3.04
2023-01-13T23:21:26.077Z,2.97
2023-01-13T23:23:53.503Z,2.96
2023-01-13T23:26:20.756Z,2.94
2023-01-13T23:28:47.694Z,2.99
2023-01-13T23:31:23.341Z,2.91
2023-01-13T23:33:50.026Z,2.88
2023-01-13T23:36:18.133Z,2.88
2023-01-13T23:38:44.828Z,2.91
2023-01-13T23:41:13.627Z,2.97
2023-01-13T23:43:40.362Z,2.94
2023-01-13T23:46:08.462Z,3.01
2023-01-13T23:48:35.741Z,3.06
2023-01-13T23:51:06.129Z,3.14
2023-01-13T23:53:35.286Z,3.23
2023-01-13T23:56:02.753Z,3.25
2023-01-13T23:58:29.666Z,3.20
